• Join FlightAware (Why Join?)
  • Login
  • US Flag GB Flag 
11:30 EDT


 

Airport Tracker/Info


-or-


 

Live Flight TrackerFlight Track Log ✈ SWA494 ✈ 18-Apr-2013 ✈ KSEA - KSJC

Flight Track Log - Related Links

Times and Time Zones

All times are in EDT time to prevent confusion due to time zone crossing. See the SWA494 flight status page for this flight to view local times or setup timezone preferences in your user account.

Time Position Orientation Groundspeed Altitude Reporting Facility
EDT Latitude Longitude Course Direction KTS MPH feet Rate Location/Type
10:37 47.4353 -122.3103 176° South 145 167 1,300  Level Seattle Center
10:37 47.4211 -122.3089 176° South 153 176 1,900 1,860 Climbing Seattle Center
10:38 47.3469 -122.3131 182° South 239 275 4,400 2,040 Climbing Seattle Center
10:39 47.3139 -122.3633 226° Southwest 263 303 6,100 2,700 Climbing Seattle Center
10:40 47.3064 -122.4689 264° West 262 302 9,400 3,060 Climbing Seattle Center
10:41 47.3108 -122.5778 273° West 269 310 12,400 2,940 Climbing Seattle Center
10:42 47.3131 -122.6914 272° West 278 320 15,400 2,700 Climbing Seattle Center
10:43 47.3014 -122.8244 263° West 341 392 18,000 2,700 Climbing Seattle Center
10:44 47.2578 -122.9886 249° West 359 413 20,900 2,580 Climbing Seattle Center
10:45 47.1869 -123.1058 228° Southwest 397 457 23,300 2,280 Climbing Seattle Center
10:46 47.0933 -123.2050 216° Southwest 416 479 25,600 2,100 Climbing Seattle Center
10:47 46.9683 -123.2167 184° South 454 522 27,600 1,800 Climbing Seattle Center
10:48 46.8378 -123.2142 179° South 470 541 29,300 1,620 Climbing Seattle Center
10:49 46.7039 -123.2100 179° South 484 557 31,000 1,680 Climbing Seattle Center
10:50 46.5678 -123.2094 180° South 496 571 32,800 1,740 Climbing Seattle Center
10:51 46.4344 -123.2050 179° South 495 570 34,600 1,740 Climbing Seattle Center
10:52 46.2708 -123.2008 179° South 491 565 36,400 1,440 Climbing Seattle Center
10:53 46.1325 -123.1942 178° South 496 571 37,600 1,140 Climbing Seattle Center
10:54 45.9947 -123.1900 179° South 494 568 38,800 600 Climbing Seattle Center
10:55 45.8572 -123.1828 178° South 493 567 38,900  Climbing Seattle Center
10:56 45.7211 -123.1778 179° South 489 563 38,900  Level Seattle Center
10:57 45.5850 -123.1728 179° South 489 563 38,900  Level Seattle Center
10:58 45.4497 -123.1667 178° South 488 562 38,900  Level Seattle Center
10:59 45.3156 -123.1617 178° South 482 555 38,900  Level Seattle Center
11:00 45.1817 -123.1569 179° South 479 551 38,900  Level Seattle Center
11:02 45.0458 -123.1528 179° South 483 556 38,900  Level Seattle Center
11:03 44.9111 -123.1497 179° South 479 551 38,900  Level Seattle Center
11:04 44.7778 -123.1439 178° South 473 544 38,900  Level Seattle Center
11:05 44.6436 -123.1400 179° South 477 549 38,900  Level Seattle Center
11:06 44.5092 -123.1344 178° South 480 552 38,900  Level Seattle Center
11:07 44.3761 -123.1289 178° South 479 551 38,900  Level Seattle Center
11:08 44.2403 -123.1239 178° South 485 558 38,900  Level Seattle Center
11:09 44.1056 -123.1208 179° South 484 557 38,900  Level Seattle Center
11:10 43.9444 -123.1147 178° South 486 559 39,000  Climbing Seattle Center
11:11 43.8092 -123.1100 179° South 484 557 39,000  Level Seattle Center
11:12 43.6756 -123.1053 179° South 482 555 39,000  Level Seattle Center
11:13 43.5439 -123.1006 179° South 475 547 39,000  Level Seattle Center
11:14 43.4117 -123.0942 178° South 474 545 39,000  Level Seattle Center
11:15 43.2786 -123.0900 179° South 476 548 39,000  Level Seattle Center
11:16 43.1464 -123.0858 179° South 475 547 39,000  Level Seattle Center
11:17 43.0133 -123.0792 178° South 476 548 39,000  Level Seattle Center
11:18 42.8800 -123.0772 179° South 477 549 39,000  Level Seattle Center
11:19 42.7489 -123.0725 178° South 474 545 39,000  Level Seattle Center
11:20 42.6147 -123.0672 178° South 473 544 39,000  Level Seattle Center
11:21 42.4850 -123.0647 179° South 469 540 39,000  Level Seattle Center
11:22 42.3553 -123.0597 178° South 468 539 39,000  Level Seattle Center
11:23 42.2256 -123.0567 179° South 469 540 39,000  Level Seattle Center
11:24 42.0969 -123.0525 179° South 466 536 39,000  Level Seattle Center
11:25 41.9661 -123.0478 178° South 469 540 39,000  Level Seattle Center
11:26 41.8103 -123.0433 179° South 470 541 39,000  Level Seattle Center
11:27 41.6806 -123.0303 176° South 469 540 39,000  Level Seattle Center
11:28 41.5494 -123.0181 176° South 472 543 39,000  Level Seattle Center
11:29 41.4186 -123.0042 175° South 472 543 39,000 -60 Level Seattle Center
11:30 41.2986 -122.9947 177° South 471 542 38,900 -60 Descending Seattle Center
11:31 41.1686 -122.9817 176° South 470 541 38,900  Level Seattle Center
11:32 41.0378 -122.9681 176° South 470 541 38,900  Level Seattle Center
11:33 40.8808 -122.9528 176° South 471 542 38,900  Level Seattle Center
11:33 40.8289 -122.9483 176° South 470 541 38,900 60 Level Oakland Center
11:34 40.6908 -122.9353 176° South 470 541 39,000  Climbing Oakland Center
11:35 40.5603 -122.9231 176° South 471 542 39,000  Level Oakland Center
11:36 40.4283 -122.9092 175° South 477 549 39,000  Level Oakland Center
11:37 40.2975 -122.8969 176° South 475 547 39,000  Level Oakland Center
11:39 40.1669 -122.8856 176° South 476 548 39,000  Level Oakland Center
11:40 40.0347 -122.8722 176° South 480 552 39,000  Level Oakland Center
11:41 39.9028 -122.8589 176° South 480 552 39,000  Level Oakland Center
11:42 39.7431 -122.8428 176° South 483 556 39,000  Level Oakland Center
11:43 39.6097 -122.8317 176° South 482 555 39,000  Level Oakland Center
11:44 39.4750 -122.8189 176° South 485 558 39,000  Level Oakland Center
11:45 39.3403 -122.8061 176° South 488 562 39,000 -180 Level Oakland Center
11:46 39.2081 -122.7944 176° South 481 554 38,700 -600 Descending Oakland Center
11:47 39.0797 -122.7817 176° South 481 554 37,800 -1,380 Descending Oakland Center
11:48 38.9497 -122.7700 176° South 474 545 35,900 -2,400 Descending Oakland Center
11:49 38.8183 -122.7544 175° South 463 533 32,900 -3,000 Descending Oakland Center
11:50 38.6578 -122.7408 176° South 478 550 29,800 -1,980 Descending Oakland Center
11:51 38.5264 -122.7303 176° South 476 548 28,900 -480 Descending Oakland Center
11:52 38.4017 -122.7192 176° South 459 528 28,900 -840 Level Oakland Center
11:53 38.2861 -122.7083 176° South 429 494 27,300 -2,340 Descending Oakland Center
11:54 38.1678 -122.6978 176° South 425 489 24,200 -3,240 Descending Oakland Center
11:55 38.0447 -122.6878 176° South 442 509 20,700 -3,180 Descending Oakland Center
11:56 37.9006 -122.6711 175° South 453 521 17,800 -2,820 Descending Oakland Center
11:57 37.8083 -122.5772 141° Southeast 444 511 15,000 -2,760 Descending Oakland Center
11:58 37.7167 -122.4667 136° Southeast 410 472 12,200 -1,500 Descending Northern Cal TRACON
11:59 37.6333 -122.3833 142° Southeast 348 400 12,000 -120 Descending Northern Cal TRACON
12:00 37.5667 -122.3333 149° Southeast 323 372 12,000 -720 Level Northern Cal TRACON
12:01 37.4833 -122.2833 155° Southeast 321 369 10,700 -1,440 Descending Northern Cal TRACON
12:02 37.4000 -122.2500 162° South 316 364 9,200 -1,320 Descending Northern Cal TRACON
12:03 37.3500 -122.1667 127° Southeast 298 343 8,100 -1,260 Descending Northern Cal TRACON
12:04 37.3000 -122.1000 133° Southeast 294 338 6,900 -1,380 Descending Northern Cal TRACON
12:04 37.2881 -122.0689 116° Southeast 294 338 6,400 -1,200 Descending Oakland Center
12:05 37.2372 -121.9933 130° Southeast 288 331 5,300 -840 Descending Oakland Center
12:06 37.2092 -121.9167 115° Southeast 247 284 4,800 -720 Descending Oakland Center
12:07 37.1994 -121.8525 101° East 213 245 3,900 -1,080 Descending Oakland Center
12:08 37.2358 -121.8228 33° Northeast 180 207 2,700 -960 Descending Oakland Center
12:09 37.2778 -121.8350 347° North 166 191 2,000 -780 Descending Oakland Center
12:10 37.3083 -121.8711 317° Northwest 156 180 1,200 -840 Descending Oakland Center
12:11 37.3408 -121.9078 318° Northwest 142 163 400 -840 Descending Oakland Center